createdAt,value
2023-03-30T00:00:33.148Z,62.05
2023-03-30T00:03:16.833Z,62.19
2023-03-30T00:05:43.471Z,62.20
2023-03-30T00:08:09.807Z,62.31
2023-03-30T00:10:36.251Z,62.19
2023-03-30T00:13:02.672Z,62.42
2023-03-30T00:15:29.051Z,62.54
2023-03-30T00:17:55.567Z,62.74
2023-03-30T00:20:22.049Z,62.78
2023-03-30T00:22:48.776Z,62.84
2023-03-30T00:25:16.386Z,62.92
2023-03-30T00:27:43.248Z,62.93
2023-03-30T00:30:13.042Z,63.15
2023-03-30T00:32:39.679Z,63.29
2023-03-30T00:35:06.332Z,63.35
2023-03-30T00:37:32.904Z,63.49
2023-03-30T00:39:59.293Z,63.45
2023-03-30T00:42:25.672Z,63.50
2023-03-30T00:44:58.032Z,63.59
2023-03-30T00:47:24.955Z,63.60
2023-03-30T00:49:51.509Z,63.73
2023-03-30T00:52:18.632Z,63.66
2023-03-30T00:54:46.708Z,63.61
2023-03-30T00:57:13.573Z,63.63
2023-03-30T00:59:40.074Z,63.69
2023-03-30T01:02:06.582Z,63.51
2023-03-30T01:04:33.241Z,63.44
2023-03-30T01:07:00.124Z,63.52
2023-03-30T01:09:26.498Z,63.59
2023-03-30T01:11:52.885Z,63.69
2023-03-30T01:14:19.298Z,63.74
2023-03-30T01:17:00.978Z,63.92
2023-03-30T01:19:46.190Z,63.86
2023-03-30T01:22:18.618Z,64.01
2023-03-30T01:24:51.476Z,64.15
2023-03-30T01:27:17.730Z,64.57
2023-03-30T01:29:47.180Z,64.66
2023-03-30T01:32:17.355Z,64.73
2023-03-30T01:34:52.426Z,64.80
2023-03-30T01:37:28.350Z,64.88
2023-03-30T01:40:04.680Z,65.07
2023-03-30T01:42:37.068Z,65.09
2023-03-30T01:45:03.486Z,64.94
2023-03-30T01:47:30.082Z,65.28
2023-03-30T01:50:00.179Z,65.28
2023-03-30T01:52:43.220Z,65.35
2023-03-30T01:55:15.112Z,65.20
2023-03-30T01:57:45.320Z,65.29
2023-03-30T02:00:17.560Z,65.17
2023-03-30T02:02:52.839Z,65.28
2023-03-30T02:05:20.495Z,65.31
2023-03-30T02:07:49.671Z,64.93
2023-03-30T02:10:16.843Z,64.96
2023-03-30T02:12:44.333Z,64.83
2023-03-30T02:15:14.074Z,64.99
2023-03-30T02:17:40.767Z,65.16
2023-03-30T02:20:07.687Z,65.03
2023-03-30T02:22:34.174Z,65.13
2023-03-30T02:25:00.798Z,65.15
2023-03-30T02:27:27.454Z,65.19
2023-03-30T02:29:54.007Z,65.18
2023-03-30T02:32:25.909Z,65.07
2023-03-30T02:35:11.364Z,65.04
2023-03-30T02:37:44.171Z,65.24
2023-03-30T02:40:10.520Z,65.04
2023-03-30T02:42:36.822Z,65.37
2023-03-30T02:45:15.465Z,65.51
2023-03-30T02:48:01.009Z,65.38
2023-03-30T02:50:53.892Z,65.53
2023-03-30T02:53:44.338Z,65.79
2023-03-30T02:56:23.384Z,65.71
2023-03-30T02:59:00.638Z,65.88
2023-03-30T03:01:37.038Z,65.79
2023-03-30T03:04:14.659Z,65.67
2023-03-30T03:07:00.149Z,65.82
2023-03-30T03:09:26.852Z,65.83
2023-03-30T03:11:53.305Z,65.95
2023-03-30T03:14:20.077Z,65.92
2023-03-30T03:16:46.899Z,66.08
2023-03-30T03:19:14.614Z,66.05
2023-03-30T03:21:41.027Z,65.96
2023-03-30T03:24:07.806Z,66.15
2023-03-30T03:26:57.351Z,66.22
2023-03-30T03:29:28.260Z,66.28
2023-03-30T03:31:57.306Z,66.32
2023-03-30T03:34:25.908Z,66.32
2023-03-30T03:36:58.550Z,66.39
2023-03-30T03:39:27.092Z,66.47
2023-03-30T03:41:59.730Z,66.53
2023-03-30T03:44:26.058Z,66.48
2023-03-30T03:46:52.867Z,66.64
2023-03-30T03:49:19.365Z,66.74
2023-03-30T03:51:45.730Z,66.93
2023-03-30T03:54:12.269Z,66.81
2023-03-30T03:56:42.544Z,66.73
2023-03-30T03:59:09.051Z,66.71
2023-03-30T04:01:35.423Z,66.64
2023-03-30T04:04:01.909Z,66.63
2023-03-30T04:06:28.375Z,66.76
2023-03-30T04:08:54.740Z,66.97
2023-03-30T04:11:30.168Z,66.83
2023-03-30T04:14:15.705Z,66.74
2023-03-30T04:17:00.673Z,66.74
2023-03-30T04:19:49.981Z,66.66
2023-03-30T04:22:37.642Z,67.08
2023-03-30T04:25:04.498Z,67.12
2023-03-30T04:27:56.643Z,67.23
2023-03-30T04:30:56.121Z,67.19
2023-03-30T04:33:52.283Z,67.25
2023-03-30T04:36:36.995Z,67.28
2023-03-30T04:39:26.525Z,67.31
2023-03-30T04:42:04.924Z,67.17
2023-03-30T04:44:43.869Z,67.21
2023-03-30T04:47:33.945Z,67.13
2023-03-30T04:50:38.993Z,67.25
2023-03-30T04:53:25.678Z,67.26
2023-03-30T04:56:10.669Z,67.31
2023-03-30T04:58:55.791Z,67.39
2023-03-30T05:01:34.326Z,67.53
2023-03-30T05:04:27.072Z,67.31
2023-03-30T05:07:06.398Z,67.47
2023-03-30T05:10:05.433Z,67.44
2023-03-30T05:12:53.055Z,67.47
2023-03-30T05:15:52.139Z,67.59
2023-03-30T05:18:37.075Z,67.58
2023-03-30T05:21:17.350Z,67.54
2023-03-30T05:24:07.025Z,67.76
2023-03-30T05:26:52.449Z,67.52
2023-03-30T05:29:21.420Z,67.53
2023-03-30T05:31:57.041Z,67.58
2023-03-30T05:34:55.776Z,67.60
2023-03-30T05:37:49.841Z,67.49
2023-03-30T05:40:27.656Z,67.24
2023-03-30T05:43:20.556Z,67.40
2023-03-30T05:45:47.428Z,67.51
2023-03-30T05:48:34.057Z,67.53
2023-03-30T05:51:10.104Z,67.54
2023-03-30T05:53:46.746Z,67.32
2023-03-30T05:56:33.385Z,67.40
2023-03-30T05:59:18.766Z,67.23
2023-03-30T06:02:06.828Z,67.15
2023-03-30T06:04:34.882Z,67.14
2023-03-30T06:07:02.196Z,67.29
2023-03-30T06:09:30.950Z,66.98
2023-03-30T06:11:59.200Z,66.59
2023-03-30T06:14:25.599Z,66.61
2023-03-30T06:17:12.025Z,66.68
2023-03-30T06:19:39.004Z,66.53
2023-03-30T06:22:08.676Z,66.51
2023-03-30T06:25:05.008Z,66.48
2023-03-30T06:27:31.653Z,66.13
2023-03-30T06:29:58.606Z,65.89
2023-03-30T06:32:30.324Z,65.84
2023-03-30T06:35:25.816Z,65.71
2023-03-30T06:37:54.879Z,65.60
2023-03-30T06:40:21.454Z,65.73
2023-03-30T06:42:49.544Z,65.61
2023-03-30T06:45:34.457Z,65.24
2023-03-30T06:48:04.894Z,65.22
2023-03-30T06:50:32.127Z,64.94
2023-03-30T06:53:02.523Z,64.92
2023-03-30T06:55:33.850Z,65.07
2023-03-30T06:58:10.035Z,64.93
2023-03-30T07:00:56.679Z,64.52
2023-03-30T07:04:02.912Z,64.34
2023-03-30T07:06:51.761Z,64.17
2023-03-30T07:09:18.285Z,64.08
2023-03-30T07:11:44.695Z,63.92
2023-03-30T07:14:11.711Z,63.72
2023-03-30T07:16:38.588Z,63.72
2023-03-30T07:19:05.312Z,63.63
2023-03-30T07:21:32.078Z,63.44
2023-03-30T07:23:58.725Z,63.21
2023-03-30T07:26:33.189Z,63.09
2023-03-30T07:29:04.749Z,63.15
2023-03-30T07:31:31.476Z,62.92
2023-03-30T07:33:58.082Z,62.78
2023-03-30T07:36:25.669Z,62.52
2023-03-30T07:38:52.186Z,61.87
2023-03-30T07:41:19.062Z,61.48
2023-03-30T07:43:48.726Z,61.44
2023-03-30T07:46:15.798Z,61.36
2023-03-30T07:48:45.303Z,61.23
2023-03-30T07:51:12.763Z,61.37
2023-03-30T07:53:48.300Z,60.36
2023-03-30T07:56:21.226Z,60.80
2023-03-30T07:58:49.258Z,60.28
2023-03-30T08:01:16.710Z,60.23
2023-03-30T08:04:02.985Z,59.71
2023-03-30T08:06:30.665Z,58.96
2023-03-30T08:08:57.612Z,57.20
2023-03-30T08:11:24.982Z,57.02
2023-03-30T08:13:51.709Z,57.14
2023-03-30T08:16:18.343Z,56.93
2023-03-30T08:18:44.895Z,56.17
2023-03-30T08:21:11.994Z,55.77
2023-03-30T08:23:38.466Z,55.10
2023-03-30T08:26:05.332Z,55.29
2023-03-30T08:28:31.926Z,54.37
2023-03-30T08:31:08.288Z,55.03
2023-03-30T08:33:34.987Z,55.46
2023-03-30T08:36:01.644Z,55.37
2023-03-30T08:38:31.566Z,55.06
2023-03-30T08:40:58.302Z,53.40
2023-03-30T08:43:43.791Z,53.08
2023-03-30T08:46:12.741Z,53.23
2023-03-30T08:48:39.401Z,53.24
2023-03-30T08:51:18.429Z,52.73
2023-03-30T08:53:45.036Z,52.48
2023-03-30T08:56:29.897Z,52.24
2023-03-30T08:59:15.586Z,52.57
2023-03-30T09:01:42.586Z,52.33
2023-03-30T09:04:17.629Z,51.95
2023-03-30T09:06:47.004Z,51.20
2023-03-30T09:09:17.340Z,51.28
2023-03-30T09:11:44.713Z,50.53
2023-03-30T09:14:15.344Z,49.95
2023-03-30T09:16:56.041Z,50.26
2023-03-30T09:19:30.806Z,49.69
2023-03-30T09:22:05.049Z,48.87
2023-03-30T09:24:31.660Z,49.09
2023-03-30T09:27:01.778Z,48.99
2023-03-30T09:29:31.392Z,49.42
2023-03-30T09:32:17.082Z,49.51
2023-03-30T09:34:43.596Z,48.36
2023-03-30T09:37:11.764Z,48.17
2023-03-30T09:39:39.030Z,48.32
2023-03-30T09:42:25.802Z,48.39
2023-03-30T09:44:57.952Z,47.96
2023-03-30T09:47:26.325Z,47.77
2023-03-30T09:50:00.144Z,48.25
2023-03-30T09:52:30.075Z,48.86
2023-03-30T09:54:56.784Z,48.58
2023-03-30T09:57:25.578Z,48.80
2023-03-30T09:59:52.271Z,48.69
2023-03-30T10:02:19.928Z,48.97
2023-03-30T10:04:52.911Z,48.73
2023-03-30T10:07:21.340Z,47.80
2023-03-30T10:10:08.161Z,47.74
2023-03-30T10:12:35.058Z,47.57
2023-03-30T10:15:04.720Z,47.15
2023-03-30T10:17:31.938Z,45.57
2023-03-30T10:20:22.512Z,44.29
2023-03-30T10:22:56.315Z,43.30
2023-03-30T10:25:25.817Z,42.31
2023-03-30T10:27:54.782Z,41.18
2023-03-30T10:30:22.630Z,41.24
2023-03-30T10:32:50.132Z,40.48
2023-03-30T10:35:46.199Z,40.09
2023-03-30T10:38:15.406Z,40.57
2023-03-30T10:41:00.124Z,40.83
2023-03-30T10:43:29.458Z,41.29
2023-03-30T10:46:18.203Z,41.35
2023-03-30T10:49:05.140Z,41.53
2023-03-30T10:51:33.310Z,42.52
2023-03-30T10:54:02.845Z,41.64
2023-03-30T10:56:34.280Z,42.57
2023-03-30T10:59:01.075Z,42.15
2023-03-30T11:01:46.208Z,41.26
2023-03-30T11:04:23.788Z,41.29
2023-03-30T11:06:51.736Z,40.80
2023-03-30T11:09:20.892Z,40.82
2023-03-30T11:11:49.074Z,40.98
2023-03-30T11:14:20.761Z,41.13
2023-03-30T11:16:53.401Z,40.58
2023-03-30T11:19:23.462Z,40.01
2023-03-30T11:21:50.466Z,39.68
2023-03-30T11:24:16.997Z,38.13
2023-03-30T11:26:47.378Z,37.85
2023-03-30T11:29:29.117Z,35.26
2023-03-30T11:31:58.622Z,34.56
2023-03-30T11:34:48.076Z,35.49
2023-03-30T11:37:22.338Z,34.46
2023-03-30T11:39:56.218Z,33.80
2023-03-30T11:42:26.175Z,34.10
2023-03-30T11:44:55.964Z,34.93
2023-03-30T11:47:57.888Z,36.16
2023-03-30T11:50:35.416Z,37.56
2023-03-30T11:53:38.314Z,39.04
2023-03-30T11:56:13.857Z,40.13
2023-03-30T11:58:40.468Z,41.01
2023-03-30T12:01:13.083Z,41.70
2023-03-30T12:03:52.700Z,42.33
2023-03-30T12:06:31.406Z,43.32
2023-03-30T12:09:17.930Z,43.71
2023-03-30T12:11:53.107Z,44.10
2023-03-30T12:14:31.894Z,44.61
2023-03-30T12:17:05.777Z,44.42
2023-03-30T12:19:55.573Z,44.68
2023-03-30T12:22:55.702Z,44.68
2023-03-30T12:25:27.963Z,45.02
2023-03-30T12:28:08.810Z,45.13
2023-03-30T12:30:54.512Z,44.90
2023-03-30T12:33:34.926Z,44.81
2023-03-30T12:36:20.985Z,44.54
2023-03-30T12:38:48.855Z,44.62
2023-03-30T12:41:21.102Z,44.88
2023-03-30T12:43:47.439Z,44.84
2023-03-30T12:46:19.472Z,45.02
2023-03-30T12:49:02.996Z,45.47
2023-03-30T12:51:49.415Z,45.89
2023-03-30T12:54:18.812Z,46.23
2023-03-30T12:57:03.147Z,46.49
2023-03-30T12:59:32.561Z,46.52
2023-03-30T13:02:18.304Z,46.59
2023-03-30T13:04:46.461Z,46.95
2023-03-30T13:07:19.308Z,47.56
2023-03-30T13:09:56.253Z,47.94
2023-03-30T13:12:37.437Z,48.07
2023-03-30T13:15:12.993Z,48.71
2023-03-30T13:17:57.319Z,49.30
2023-03-30T13:20:33.566Z,50.12
2023-03-30T13:23:20.539Z,50.56
2023-03-30T13:26:06.225Z,51.43
2023-03-30T13:28:44.979Z,52.36
2023-03-30T13:31:27.964Z,52.77
2023-03-30T13:34:04.774Z,52.98
2023-03-30T13:36:34.167Z,52.85
2023-03-30T13:39:08.119Z,53.19
2023-03-30T13:41:41.042Z,53.50
2023-03-30T13:44:30.403Z,53.79
2023-03-30T13:47:12.244Z,53.79
2023-03-30T13:49:44.899Z,53.95
2023-03-30T13:52:13.832Z,54.49
2023-03-30T13:54:59.899Z,54.41
2023-03-30T13:57:38.460Z,54.31
2023-03-30T14:00:20.398Z,54.55
2023-03-30T14:02:52.695Z,54.67
2023-03-30T14:05:22.321Z,54.68
2023-03-30T14:07:49.224Z,54.67
2023-03-30T14:10:17.440Z,54.83
2023-03-30T14:12:45.159Z,54.99
2023-03-30T14:15:25.348Z,55.18
2023-03-30T14:17:56.553Z,55.36
2023-03-30T14:20:43.437Z,55.96
2023-03-30T14:23:19.216Z,56.04
2023-03-30T14:25:45.758Z,56.27
2023-03-30T14:28:13.563Z,56.38
2023-03-30T14:30:47.878Z,56.66
2023-03-30T14:33:14.577Z,56.74
2023-03-30T14:35:42.886Z,56.82
2023-03-30T14:38:41.744Z,56.78
2023-03-30T14:41:14.791Z,56.66
2023-03-30T14:43:42.380Z,56.49
2023-03-30T14:46:11.026Z,56.75
2023-03-30T14:48:39.802Z,56.85
2023-03-30T14:51:26.696Z,57.06
2023-03-30T14:53:54.103Z,57.53
2023-03-30T14:56:21.734Z,57.83
2023-03-30T14:58:50.272Z,58.05
2023-03-30T15:01:19.043Z,58.12
2023-03-30T15:03:46.472Z,58.23
2023-03-30T15:06:15.146Z,58.41
2023-03-30T15:08:45.071Z,58.69
2023-03-30T15:11:13.440Z,59.17
2023-03-30T15:13:42.592Z,59.51
2023-03-30T15:16:13.675Z,59.73
2023-03-30T15:18:40.102Z,59.91
2023-03-30T15:21:08.940Z,60.38
2023-03-30T15:23:37.646Z,60.59
2023-03-30T15:26:05.330Z,60.84
2023-03-30T15:28:40.029Z,61.43
2023-03-30T15:31:09.908Z,62.69
2023-03-30T15:33:40.304Z,63.13
2023-03-30T15:36:11.866Z,63.51
2023-03-30T15:38:49.419Z,63.93
2023-03-30T15:41:16.778Z,64.68
2023-03-30T15:43:56.527Z,65.19
2023-03-30T15:46:23.732Z,66.35
2023-03-30T15:48:51.809Z,66.13
2023-03-30T15:51:24.281Z,67.21
2023-03-30T15:53:57.318Z,67.92
2023-03-30T15:56:36.792Z,68.42
2023-03-30T15:59:03.704Z,68.93
2023-03-30T16:01:42.130Z,69.04
2023-03-30T16:04:12.624Z,69.74
2023-03-30T16:06:42.106Z,70.07
2023-03-30T16:09:09.553Z,70.58
2023-03-30T16:11:36.560Z,71.01
2023-03-30T16:14:09.794Z,71.51
2023-03-30T16:16:36.430Z,71.74
2023-03-30T16:19:02.770Z,71.98
2023-03-30T16:21:29.380Z,72.31
2023-03-30T16:23:55.758Z,72.44
2023-03-30T16:26:25.477Z,72.64
2023-03-30T16:28:53.143Z,73.36
2023-03-30T16:31:21.489Z,74.17
2023-03-30T16:33:48.532Z,74.64
2023-03-30T16:36:16.510Z,75.34
2023-03-30T16:38:43.461Z,75.04
2023-03-30T16:41:14.795Z,75.15
2023-03-30T16:43:41.679Z,75.37
2023-03-30T16:46:09.588Z,75.70
2023-03-30T16:48:36.390Z,75.96
2023-03-30T16:51:03.152Z,76.26
2023-03-30T16:53:29.836Z,76.62
2023-03-30T16:55:56.778Z,77.00
2023-03-30T16:58:23.257Z,76.89
2023-03-30T17:00:50.738Z,77.26
2023-03-30T17:03:17.995Z,77.78
2023-03-30T17:05:44.797Z,78.28
2023-03-30T17:08:20.542Z,78.36
2023-03-30T17:10:47.423Z,79.06
2023-03-30T17:13:14.479Z,79.15
2023-03-30T17:15:41.199Z,79.75
2023-03-30T17:18:16.126Z,79.81
2023-03-30T17:20:47.015Z,80.20
2023-03-30T17:23:14.118Z,80.64
2023-03-30T17:25:40.650Z,80.77
2023-03-30T17:28:07.161Z,81.29
2023-03-30T17:30:35.523Z,81.64
2023-03-30T17:33:02.297Z,81.97
2023-03-30T17:35:29.164Z,82.55
2023-03-30T17:37:55.878Z,82.93
2023-03-30T17:40:27.165Z,83.14
2023-03-30T17:42:53.986Z,83.57
2023-03-30T17:45:22.459Z,83.83
2023-03-30T17:47:49.008Z,84.36
2023-03-30T17:50:21.916Z,85.36
2023-03-30T17:52:49.366Z,85.74
2023-03-30T17:55:16.991Z,86.15
2023-03-30T17:57:43.675Z,85.98
2023-03-30T18:00:16.532Z,86.66
2023-03-30T18:02:51.374Z,86.96
2023-03-30T18:05:18.959Z,87.71
2023-03-30T18:07:45.842Z,87.65
2023-03-30T18:10:17.109Z,87.66
2023-03-30T18:13:02.606Z,87.66
2023-03-30T18:15:43.323Z,87.87
2023-03-30T18:18:14.343Z,87.90
2023-03-30T18:20:46.699Z,88.14
2023-03-30T18:23:41.140Z,88.31
2023-03-30T18:26:11.849Z,88.15
2023-03-30T18:28:43.201Z,88.48
2023-03-30T18:31:14.107Z,88.83
2023-03-30T18:33:53.654Z,89.01
2023-03-30T18:36:41.383Z,88.87
2023-03-30T18:39:16.332Z,88.84
2023-03-30T18:41:42.846Z,88.95
2023-03-30T18:44:09.303Z,89.31
2023-03-30T18:46:46.411Z,89.22
2023-03-30T18:49:13.431Z,89.10
2023-03-30T18:51:39.922Z,89.63
2023-03-30T18:54:16.970Z,89.45
2023-03-30T18:56:43.592Z,89.47
2023-03-30T18:59:10.506Z,89.80
2023-03-30T19:01:46.138Z,89.46
2023-03-30T19:04:12.998Z,89.51
2023-03-30T19:06:39.450Z,89.76
2023-03-30T19:09:07.621Z,90.14
2023-03-30T19:11:34.513Z,90.00
2023-03-30T19:14:00.898Z,89.90
2023-03-30T19:16:27.775Z,90.00
2023-03-30T19:19:00.209Z,89.92
2023-03-30T19:21:26.988Z,90.03
2023-03-30T19:23:53.987Z,89.83
2023-03-30T19:26:20.604Z,90.00
2023-03-30T19:28:47.238Z,90.28
2023-03-30T19:31:14.048Z,90.25
2023-03-30T19:33:41.875Z,90.33
2023-03-30T19:36:09.617Z,90.44
2023-03-30T19:38:36.491Z,90.55
2023-03-30T19:41:04.126Z,90.66
2023-03-30T19:43:30.774Z,90.63
2023-03-30T19:45:57.621Z,91.10
2023-03-30T19:48:24.699Z,91.05
2023-03-30T19:50:51.190Z,91.42
2023-03-30T19:53:17.816Z,91.53
2023-03-30T19:55:44.503Z,91.99
2023-03-30T19:58:11.276Z,92.39
2023-03-30T20:00:37.955Z,92.22
2023-03-30T20:03:04.961Z,92.24
2023-03-30T20:05:37.119Z,92.19
2023-03-30T20:08:13.387Z,92.29
2023-03-30T20:10:47.798Z,92.38
2023-03-30T20:13:14.779Z,92.51
2023-03-30T20:15:41.267Z,93.06
2023-03-30T20:18:08.026Z,93.50
2023-03-30T20:20:34.795Z,93.45
2023-03-30T20:23:01.312Z,93.79
2023-03-30T20:25:27.928Z,93.80
2023-03-30T20:27:54.623Z,93.64
2023-03-30T20:30:21.023Z,94.29
2023-03-30T20:32:59.719Z,93.69
2023-03-30T20:35:36.727Z,94.08
2023-03-30T20:38:03.925Z,94.02
2023-03-30T20:40:31.083Z,93.85
2023-03-30T20:42:57.603Z,94.23
2023-03-30T20:45:24.254Z,94.39
2023-03-30T20:47:50.780Z,94.47
2023-03-30T20:50:17.502Z,94.42
2023-03-30T20:52:44.322Z,94.85
2023-03-30T20:55:10.735Z,94.67
2023-03-30T20:57:37.364Z,94.62
2023-03-30T21:00:04.986Z,94.94
2023-03-30T21:02:31.898Z,94.69
2023-03-30T21:05:01.732Z,94.85
2023-03-30T21:07:28.298Z,94.74
2023-03-30T21:09:54.676Z,95.13
2023-03-30T21:12:23.340Z,95.05
2023-03-30T21:14:49.852Z,95.15
2023-03-30T21:17:16.212Z,95.15
2023-03-30T21:19:42.585Z,95.46
2023-03-30T21:22:09.099Z,95.18
2023-03-30T21:24:35.707Z,95.52
2023-03-30T21:27:02.215Z,95.38
2023-03-30T21:29:28.682Z,95.90
2023-03-30T21:31:55.107Z,95.63
2023-03-30T21:34:21.585Z,95.74
2023-03-30T21:36:48.579Z,96.11
2023-03-30T21:39:15.125Z,95.94
2023-03-30T21:41:41.566Z,96.06
2023-03-30T21:44:07.955Z,95.88
2023-03-30T21:46:34.536Z,96.26
2023-03-30T21:49:01.218Z,96.32
2023-03-30T21:51:28.552Z,96.66
2023-03-30T21:53:55.802Z,96.63
2023-03-30T21:56:23.588Z,96.55
2023-03-30T21:58:50.501Z,96.56
2023-03-30T22:01:18.101Z,96.64
2023-03-30T22:03:44.922Z,96.67
2023-03-30T22:06:13.468Z,96.72
2023-03-30T22:08:40.425Z,96.64
2023-03-30T22:11:17.480Z,96.55
2023-03-30T22:13:46.171Z,96.48
2023-03-30T22:16:16.517Z,96.48
2023-03-30T22:18:43.820Z,96.42
2023-03-30T22:21:30.407Z,96.61
2023-03-30T22:24:03.443Z,96.50
2023-03-30T22:26:30.114Z,96.25
2023-03-30T22:28:59.811Z,96.15
2023-03-30T22:31:29.523Z,96.71
2023-03-30T22:33:56.169Z,96.73
2023-03-30T22:36:24.088Z,97.02
2023-03-30T22:38:51.146Z,97.03
2023-03-30T22:41:18.195Z,96.99
2023-03-30T22:43:44.803Z,97.08
2023-03-30T22:46:11.372Z,97.01
2023-03-30T22:48:38.082Z,96.91
2023-03-30T22:51:04.745Z,96.85
2023-03-30T22:53:31.296Z,96.85
2023-03-30T22:55:57.869Z,96.80
2023-03-30T22:58:24.367Z,96.57
2023-03-30T23:00:50.833Z,96.56
2023-03-30T23:03:19.472Z,96.52
2023-03-30T23:05:49.919Z,96.42
2023-03-30T23:08:16.557Z,96.44
2023-03-30T23:10:45.839Z,96.55
2023-03-30T23:13:12.322Z,96.49
2023-03-30T23:15:38.817Z,96.18
2023-03-30T23:18:05.357Z,96.44
2023-03-30T23:20:31.760Z,96.26
2023-03-30T23:22:58.146Z,96.28
2023-03-30T23:25:24.599Z,96.34
2023-03-30T23:27:51.050Z,96.41
2023-03-30T23:30:17.567Z,96.25
2023-03-30T23:32:44.063Z,95.87
2023-03-30T23:35:13.693Z,95.98
2023-03-30T23:37:40.196Z,95.91
2023-03-30T23:40:06.891Z,95.85
2023-03-30T23:42:33.217Z,95.97
2023-03-30T23:45:01.833Z,96.04
2023-03-30T23:47:28.267Z,96.17
2023-03-30T23:49:54.782Z,96.11
2023-03-30T23:52:21.149Z,96.07
2023-03-30T23:54:47.493Z,96.01
2023-03-30T23:57:13.935Z,95.84
2023-03-30T23:59:40.444Z,96.20
